Time;durP1;ratioP1;P1;durP2;ratioP2;P2;SDS_P1;SDS_P2;PMS_P1;PMS_P2;Temp;Humidity;BMP_temperature;BMP_pressure;BME280_temperature;BME280_humidity;BME280_pressure;Samples;Min_cycle;Max_cycle;Signal;HPM_P1;HPM_P2
2023/02/16 00:01:33;;;;;;;205.85;68.95;;;;;;;6.27;100.00;102285.00;5033934;28;20448;-43
2023/02/16 00:03:59;;;;;;;;;;;;;;;6.28;100.00;102283.16;5033159;28;20025;-44
2023/02/16 00:06:25;;;;;;;213.10;68.50;;;;;;;6.24;100.00;102282.56;5033627;28;19931;-43
2023/02/16 00:08:52;;;;;;;196.77;67.68;;;;;;;6.24;100.00;102281.69;5019054;28;20065;-43
2023/02/16 00:14:16;;;;;;;208.65;69.68;;;;;;;6.22;100.00;102284.50;5033840;28;20045;-42
2023/02/16 00:16:41;;;;;;;196.63;70.18;;;;;;;6.20;100.00;102280.22;5030007;28;20034;-43
2023/02/16 00:19:19;;;;;;;200.50;67.60;;;;;;;6.22;100.00;102272.94;5018249;28;20505;-44
2023/02/16 00:21:45;;;;;;;195.93;68.20;;;;;;;6.21;100.00;102273.91;5019774;28;20133;-43
2023/02/16 00:24:11;;;;;;;194.13;69.05;;;;;;;6.20;100.00;102273.06;5034193;28;20029;-42
2023/02/16 00:26:36;;;;;;;211.93;71.28;;;;;;;6.20;100.00;102267.72;5033604;28;20495;-43
2023/02/16 00:29:02;;;;;;;204.05;69.78;;;;;;;6.20;100.00;102270.38;5031855;28;20475;-44
2023/02/16 00:31:31;;;;;;;187.68;67.00;;;;;;;6.20;100.00;102267.72;5019658;28;20055;-43
2023/02/16 00:33:57;;;;;;;201.75;67.90;;;;;;;6.21;100.00;102272.06;5032639;28;20500;-42
2023/02/16 00:36:23;;;;;;;201.57;70.53;;;;;;;6.22;100.00;102267.59;5033579;28;20036;-43
2023/02/16 00:38:48;;;;;;;195.30;68.65;;;;;;;6.22;100.00;102268.44;5032301;28;20029;-43
2023/02/16 00:44:14;;;;;;;198.45;68.35;;;;;;;6.24;100.00;102261.16;5032575;28;20095;-44
2023/02/16 00:46:39;;;;;;;185.02;63.63;;;;;;;6.25;100.00;102260.19;5017358;28;20291;-43
2023/02/16 00:49:11;;;;;;;188.30;65.50;;;;;;;6.23;100.00;102270.13;5024341;28;20069;-43
2023/02/16 00:51:37;;;;;;;200.02;69.53;;;;;;;6.23;100.00;102267.47;5030016;28;20103;-43
2023/02/16 00:54:02;;;;;;;188.13;67.32;;;;;;;6.24;100.00;102266.50;5032895;28;20449;-43
2023/02/16 00:56:27;;;;;;;176.50;66.10;;;;;;;6.25;100.00;102257.50;5032332;28;20519;-45
2023/02/16 00:58:53;;;;;;;193.07;66.50;;;;;;;6.23;100.00;102254.09;5031832;28;20053;-43
2023/02/16 01:01:20;;;;;;;199.00;65.97;;;;;;;6.24;100.00;102265.63;5031855;28;20026;-42
2023/02/16 01:03:45;;;;;;;180.60;66.00;;;;;;;6.25;100.00;102265.53;5030743;28;20479;-45
2023/02/16 01:11:49;;;;;;;189.55;65.72;;;;;;;6.25;100.00;102268.19;5012996;28;20041;-43
2023/02/16 01:14:14;;;;;;;194.93;66.72;;;;;;;6.21;100.00;102261.38;5016775;28;20525;-43
2023/02/16 01:16:41;;;;;;;189.57;67.90;;;;;;;6.19;100.00;102258.00;5011590;28;20045;-43
2023/02/16 01:19:06;;;;;;;186.07;68.10;;;;;;;6.20;100.00;102254.34;5020039;28;20108;-42
2023/02/16 01:21:32;;;;;;;187.23;68.57;;;;;;;6.22;100.00;102251.56;5013705;28;20261;-45
2023/02/16 01:23:57;;;;;;;189.95;66.82;;;;;;;6.19;100.00;102258.00;5012153;28;20037;-43
2023/02/16 01:26:23;;;;;;;198.32;69.50;;;;;;;6.16;100.00;102252.84;5012370;28;20076;-44
2023/02/16 01:28:48;;;;;;;191.23;70.65;;;;;;;6.09;100.00;102254.31;5012404;28;20026;-44
2023/02/16 01:31:14;;;;;;;200.23;69.38;;;;;;;6.10;100.00;102264.03;5012226;28;20025;-44
2023/02/16 01:33:41;;;;;;;189.43;69.03;;;;;;;6.07;100.00;102261.59;5024707;28;20046;-43
2023/02/16 01:36:22;;;;;;;187.18;69.95;;;;;;;6.06;100.00;102249.22;5032135;28;20069;-44
2023/02/16 01:38:47;;;;;;;197.32;70.20;;;;;;;6.11;100.00;102255.06;5024761;28;20037;-44
2023/02/16 01:41:32;;;;;;;185.93;67.55;;;;;;;6.08;100.00;102260.63;5023719;28;20392;-44
2023/02/16 01:44:04;;;;;;;187.23;70.38;;;;;;;6.04;100.00;102259.16;5029728;28;20444;-43
2023/02/16 01:46:52;;;;;;;184.40;67.25;;;;;;;6.07;100.00;102240.22;5032383;28;20030;-44
2023/02/16 01:49:19;;;;;;;178.80;67.03;;;;;;;6.06;100.00;102249.22;5030060;28;20033;-43
2023/02/16 01:51:49;;;;;;;200.07;68.32;;;;;;;6.04;100.00;102256.50;5030301;28;20068;-43
2023/02/16 01:54:35;;;;;;;182.05;66.38;;;;;;;6.04;100.00;102248.47;5014566;28;20057;-43
2023/02/16 01:57:05;;;;;;;177.02;65.85;;;;;;;6.06;100.00;102251.88;5022952;28;20464;-44
2023/02/16 01:59:42;;;;;;;179.55;68.30;;;;;;;6.04;100.00;102243.13;5029871;28;20448;-44
2023/02/16 02:02:14;;;;;;;186.10;66.55;;;;;;;5.99;100.00;102243.47;5031716;28;20039;-44
2023/02/16 02:07:39;;;;;;;173.57;64.90;;;;;;;6.05;100.00;102239.47;5013418;28;20084;-44
2023/02/16 02:10:32;;;;;;;175.43;65.38;;;;;;;6.09;100.00;102236.47;5028664;28;20033;-41
2023/02/16 02:13:06;;;;;;;174.48;63.00;;;;;;;6.09;100.00;102228.44;5009765;28;20036;-43
2023/02/16 02:15:32;;;;;;;165.35;62.80;;;;;;;6.12;100.00;102228.19;5011258;28;20537;-43
2023/02/16 02:17:58;;;;;;;174.20;62.67;;;;;;;6.18;100.00;102229.53;5011811;28;20068;-44
2023/02/16 02:23:29;;;;;;;169.00;62.35;;;;;;;6.24;100.00;102225.53;5012874;28;20038;-45
2023/02/16 02:23:31;;;;;;;172.05;62.78;;;;;;;6.24;100.00;102218.38;5018060;28;20396;-44
2023/02/16 02:26:08;;;;;;;166.02;62.83;;;;;;;6.28;100.00;102214.50;5029096;28;20038;-44
2023/02/16 02:28:50;;;;;;;170.93;61.60;;;;;;;6.28;100.00;102209.13;5030842;28;20456;-43
2023/02/16 02:31:15;;;;;;;160.15;60.63;;;;;;;6.25;100.00;102209.38;5029890;28;20025;-44
2023/02/16 02:34:07;;;;;;;160.75;61.95;;;;;;;6.26;100.00;102210.22;5026535;28;20477;-43
2023/02/16 02:36:35;;;;;;;154.52;60.17;;;;;;;6.28;100.00;102203.78;5030337;28;20044;-44
2023/02/16 02:39:09;;;;;;;;;;;;;;;6.26;100.00;102200.38;5030810;28;20076;-42
2023/02/16 02:42:05;;;;;;;159.45;58.95;;;;;;;6.26;100.00;102183.50;5031317;28;20003;-44
2023/02/16 02:44:40;;;;;;;168.45;61.30;;;;;;;6.30;100.00;102196.50;5025636;28;20033;-43
2023/02/16 02:47:05;;;;;;;151.73;57.92;;;;;;;6.27;100.00;102188.72;5009796;28;20053;-43
2023/02/16 02:49:31;;;;;;;159.95;59.88;;;;;;;6.26;100.00;102189.69;5024837;28;20108;-43
2023/02/16 02:51:56;;;;;;;145.82;58.40;;;;;;;6.28;100.00;102187.75;5029134;28;20029;-45
2023/02/16 03:00:43;;;;;;;146.82;55.88;;;;;;;6.29;100.00;102191.28;5010952;28;20334;-45
2023/02/16 03:03:17;;;;;;;150.10;57.58;;;;;;;6.28;100.00;102186.91;5015846;28;20021;-44
2023/02/16 03:05:45;;;;;;;144.05;55.90;;;;;;;6.29;100.00;102178.78;5017811;28;20034;-45
2023/02/16 03:08:14;;;;;;;;;;;;;;;6.34;100.00;102184.59;5028129;28;20048;-42
2023/02/16 03:13:37;;;;;;;142.68;55.67;;;;;;;6.33;100.00;102176.69;5022421;28;20053;-43
2023/02/16 03:16:15;;;;;;;135.07;55.38;;;;;;;6.37;100.00;102173.66;5023922;28;20029;-44
2023/02/16 03:29:44;;;;;;;136.93;55.28;;;;;;;6.44;100.00;102176.69;5024978;28;20095;-43
2023/02/16 03:32:09;;;;;;;138.13;55.10;;;;;;;6.48;100.00;102177.31;4993496;28;20370;-43
2023/02/16 03:34:35;;;;;;;133.80;53.60;;;;;;;6.48;100.00;102183.50;5009873;28;20061;-43
2023/02/16 03:37:01;;;;;;;144.77;55.47;;;;;;;6.47;100.00;102175.59;5020903;28;20083;-43
2023/02/16 03:39:28;;;;;;;139.18;56.08;;;;;;;6.45;100.00;102166.84;5024770;28;20037;-44
2023/02/16 03:41:54;;;;;;;137.95;53.78;;;;;;;6.46;100.00;102168.56;5012054;28;20470;-44
2023/02/16 03:44:20;;;;;;;137.07;54.78;;;;;;;6.46;100.00;102163.22;5010271;28;20116;-43
2023/02/16 03:46:48;;;;;;;127.10;51.67;;;;;;;6.46;100.00;102160.53;5010604;28;20545;-44
2023/02/16 03:49:13;;;;;;;;;;;;;;;6.46;100.00;102163.22;5026029;28;20497;-43
2023/02/16 03:51:39;;;;;;;142.02;52.35;;;;;;;6.48;100.00;102167.47;5014431;28;19913;-45
2023/02/16 03:54:04;;;;;;;127.22;51.08;;;;;;;6.49;100.00;102157.63;5010973;28;20084;-43
2023/02/16 03:56:29;;;;;;;129.10;51.38;;;;;;;6.51;100.00;102161.88;5011230;28;20041;-44
2023/02/16 03:58:55;;;;;;;137.07;53.13;;;;;;;6.52;100.00;102166.22;5027710;28;20112;-45
2023/02/16 04:01:20;;;;;;;133.32;50.25;;;;;;;6.56;100.00;102174.88;5030133;28;20171;-43
2023/02/16 04:03:45;;;;;;;132.18;53.35;;;;;;;6.57;100.00;102177.41;5029979;28;20516;-42
2023/02/16 04:06:11;;;;;;;128.23;51.35;;;;;;;6.59;100.00;102180.81;5029901;28;20401;-42
2023/02/16 04:08:36;;;;;;;118.43;49.65;;;;;;;6.62;100.00;102174.38;5025470;28;20479;-42
2023/02/16 04:12:34;;;;;;;134.32;53.58;;;;;;;6.62;100.00;102168.19;5029815;28;20033;-43
2023/02/16 04:13:47;;;;;;;131.48;52.05;;;;;;;6.63;100.00;102178.75;5029135;28;20427;-43
2023/02/16 04:16:12;;;;;;;131.65;51.80;;;;;;;6.63;100.00;102173.38;5029441;28;20129;-43
2023/02/16 04:18:37;;;;;;;128.45;51.47;;;;;;;6.62;100.00;102166.34;5026211;28;20049;-43
2023/02/16 04:21:03;;;;;;;131.80;51.08;;;;;;;6.62;100.00;102169.03;5024484;28;20416;-44
2023/02/16 04:23:28;;;;;;;145.48;54.15;;;;;;;6.63;100.00;102169.88;5030144;28;20025;-44
2023/02/16 04:25:53;;;;;;;133.27;52.40;;;;;;;6.59;100.00;102171.94;5026829;28;20025;-44
2023/02/16 04:28:19;;;;;;;140.68;52.10;;;;;;;6.61;100.00;102167.34;5023122;28;20116;-43
2023/02/16 04:30:44;;;;;;;131.60;53.55;;;;;;;6.56;100.00;102164.19;5027616;28;20065;-43
2023/02/16 04:33:09;;;;;;;137.15;52.97;;;;;;;6.58;100.00;102164.88;5010435;28;20065;-44
2023/02/16 04:35:35;;;;;;;130.65;52.55;;;;;;;6.57;100.00;102165.88;5010768;28;20054;-46
2023/02/16 04:38:00;;;;;;;132.98;53.45;;;;;;;6.57;100.00;102171.22;5025470;28;20079;-44
2023/02/16 04:40:25;;;;;;;132.80;53.58;;;;;;;6.58;100.00;102163.09;5031960;28;20026;-42
2023/02/16 04:42:51;;;;;;;127.03;52.40;;;;;;;6.56;100.00;102164.19;5031063;28;20025;-43
2023/02/16 04:45:16;;;;;;;131.38;53.15;;;;;;;6.54;100.00;102160.78;5032076;28;20030;-43
2023/02/16 04:47:42;;;;;;;130.95;53.08;;;;;;;6.52;100.00;102149.34;5029407;28;20457;-43
2023/02/16 04:50:07;;;;;;;133.38;52.40;;;;;;;6.52;100.00;102152.00;5028555;28;20042;-42
2023/02/16 04:52:33;;;;;;;132.18;51.47;;;;;;;6.56;100.00;102156.16;5011763;28;20037;-43
2023/02/16 04:54:58;;;;;;;126.75;51.97;;;;;;;6.58;100.00;102143.47;5015327;28;20040;-44
2023/02/16 04:57:23;;;;;;;129.40;52.42;;;;;;;6.55;100.00;102146.41;5030240;28;20468;-44
2023/02/16 04:59:49;;;;;;;135.25;54.40;;;;;;;6.56;100.00;102148.97;5029960;28;20030;-45
2023/02/16 05:02:14;;;;;;;130.10;51.63;;;;;;;6.57;100.00;102147.13;5014153;28;20076;-44
2023/02/16 05:04:40;;;;;;;134.10;53.28;;;;;;;6.58;100.00;102147.03;5014104;28;20021;-43
2023/02/16 05:07:06;;;;;;;135.90;52.28;;;;;;;6.58;100.00;102154.19;5029995;28;20112;-42
2023/02/16 05:09:31;;;;;;;126.57;53.78;;;;;;;6.57;100.00;102157.84;5026965;28;20547;-44
2023/02/16 05:14:45;;;;;;;135.18;52.83;;;;;;;6.55;100.00;102149.09;5016931;28;20444;-43
2023/02/16 05:17:12;;;;;;;131.10;53.47;;;;;;;6.53;100.00;102145.69;4999591;28;20080;-43
2023/02/16 05:19:38;;;;;;;126.10;49.43;;;;;;;6.56;100.00;102150.81;5015733;28;20135;-44
2023/02/16 05:22:03;;;;;;;132.13;52.00;;;;;;;6.60;100.00;102149.56;5028328;28;20468;-43
2023/02/16 05:24:29;;;;;;;127.38;53.20;;;;;;;6.61;100.00;102135.22;5021508;28;20037;-44
2023/02/16 05:26:54;;;;;;;132.60;50.67;;;;;;;6.62;100.00;102144.94;5030379;28;20116;-44
2023/02/16 05:29:19;;;;;;;126.82;52.15;;;;;;;6.62;100.00;102152.97;5025445;28;20029;-46
2023/02/16 05:31:45;;;;;;;127.63;52.42;;;;;;;6.62;100.00;102152.97;5026924;28;20071;-44
2023/02/16 05:34:10;;;;;;;131.00;53.28;;;;;;;6.65;100.00;102151.88;5030587;28;20049;-44
2023/02/16 05:36:35;;;;;;;128.77;51.05;;;;;;;6.67;100.00;102155.28;5017755;28;20445;-43
2023/02/16 05:39:01;;;;;;;132.85;53.13;;;;;;;6.70;100.00;102150.53;5030116;28;20500;-45
2023/02/16 05:41:26;;;;;;;133.73;52.53;;;;;;;6.70;100.00;102133.63;5026133;28;20025;-44
2023/02/16 05:43:56;;;;;;;136.68;53.08;;;;;;;6.70;100.00;102128.28;5016493;28;20100;-43
2023/02/16 05:46:23;;;;;;;125.07;50.30;;;;;;;6.72;100.00;102134.34;5017928;28;20061;-45
2023/02/16 05:48:48;;;;;;;133.10;52.33;;;;;;;6.67;100.00;102140.06;5018963;28;20128;-44
2023/02/16 05:51:13;;;;;;;135.30;53.42;;;;;;;6.66;100.00;102143.75;5014774;28;20113;-44
2023/02/16 05:53:39;;;;;;;125.03;51.22;;;;;;;6.67;100.00;102145.44;5018646;28;20053;-44
2023/02/16 05:56:04;;;;;;;127.97;50.88;;;;;;;6.63;100.00;102141.28;5030227;28;20033;-45
2023/02/16 05:58:30;;;;;;;133.00;51.15;;;;;;;6.65;100.00;102142.03;5023420;28;20414;-44
2023/02/16 06:00:55;;;;;;;133.27;52.80;;;;;;;6.63;100.00;102154.66;5015327;28;20108;-42
2023/02/16 06:03:20;;;;;;;129.93;52.97;;;;;;;6.62;100.00;102154.81;5009988;28;20451;-44
2023/02/16 06:05:51;;;;;;;141.38;52.42;;;;;;;6.63;100.00;102157.34;5021774;28;20033;-44
2023/02/16 06:08:17;;;;;;;137.80;53.08;;;;;;;6.58;100.00;102156.84;5028054;28;20382;-44
2023/02/16 06:10:42;;;;;;;146.90;56.38;;;;;;;6.54;100.00;102158.09;5012156;28;20033;-43
2023/02/16 06:13:07;;;;;;;130.73;52.78;;;;;;;6.55;100.00;102162.47;5010604;28;20049;-44
2023/02/16 06:15:33;;;;;;;132.93;54.10;;;;;;;6.55;100.00;102160.63;5011727;28;20469;-44
2023/02/16 06:17:58;;;;;;;131.82;52.47;;;;;;;6.56;100.00;102158.81;5029798;28;20477;-44
2023/02/16 06:20:23;;;;;;;128.25;53.33;;;;;;;6.60;100.00;102158.44;5031826;28;20465;-44
2023/02/16 06:22:49;;;;;;;138.23;53.28;;;;;;;6.62;100.00;102161.00;5025861;28;20028;-44
2023/02/16 06:25:14;;;;;;;145.30;54.60;;;;;;;6.62;100.00;102169.03;5012000;28;20104;-43
2023/02/16 06:27:39;;;;;;;139.75;53.90;;;;;;;6.65;100.00;102163.41;5026526;28;20072;-45
2023/02/16 06:30:07;;;;;;;137.20;54.97;;;;;;;6.66;100.00;102167.81;5029530;28;20474;-44
2023/02/16 06:32:32;;;;;;;133.20;53.05;;;;;;;6.70;100.00;102174.59;5030526;28;20075;-43
2023/02/16 06:34:58;;;;;;;133.18;52.67;;;;;;;6.70;100.00;102171.94;5031000;28;20021;-44
2023/02/16 06:37:24;;;;;;;129.52;53.20;;;;;;;6.69;100.00;102175.59;5025044;28;20073;-45
2023/02/16 06:39:49;;;;;;;130.68;54.97;;;;;;;6.66;100.00;102166.94;5014949;28;20104;-45
2023/02/16 06:42:15;;;;;;;128.82;53.83;;;;;;;6.65;100.00;102171.44;5029844;28;20117;-43
2023/02/16 06:44:43;;;;;;;132.52;53.15;;;;;;;6.66;100.00;102172.28;5029873;28;20022;-44
2023/02/16 06:47:08;;;;;;;;;;;;;;;6.68;100.00;102176.53;5022343;28;20026;-43
2023/02/16 06:49:33;;;;;;;129.32;52.13;;;;;;;6.70;100.00;102171.09;5023595;28;19913;-44
2023/02/16 06:51:59;;;;;;;133.18;53.70;;;;;;;6.72;100.00;102175.34;5031168;28;20068;-44
2023/02/16 06:54:24;;;;;;;132.18;54.58;;;;;;;6.71;100.00;102173.63;5030901;28;20021;-42
2023/02/16 06:56:49;;;;;;;122.35;52.75;;;;;;;6.76;100.00;102176.78;5030814;28;20214;-43
2023/02/16 06:59:14;;;;;;;129.05;51.85;;;;;;;6.75;100.00;102169.72;5029059;28;20160;-44
2023/02/16 07:01:40;;;;;;;132.00;53.65;;;;;;;6.79;100.00;102186.38;5031093;28;20095;-44
2023/02/16 07:04:05;;;;;;;131.98;53.70;;;;;;;6.81;100.00;102185.28;5031326;28;20396;-44
2023/02/16 07:06:31;;;;;;;125.82;52.80;;;;;;;6.82;100.00;102184.31;5027596;28;20200;-44
2023/02/16 07:08:57;;;;;;;122.97;51.00;;;;;;;6.86;100.00;102186.75;5017246;28;20108;-45
2023/02/16 07:11:23;;;;;;;135.70;52.95;;;;;;;6.87;100.00;102183.06;5010635;28;20231;-44
2023/02/16 07:13:48;;;;;;;129.15;53.63;;;;;;;6.89;100.00;102181.97;5024891;28;20463;-43
2023/02/16 07:16:14;;;;;;;126.78;51.65;;;;;;;6.93;100.00;102182.59;5019349;28;20033;-45
2023/02/16 07:18:39;;;;;;;130.65;51.97;;;;;;;6.95;100.00;102185.97;5027726;28;20032;-46
2023/02/16 07:21:05;;;;;;;120.15;49.55;;;;;;;6.99;100.00;102190.13;5030767;28;20469;-44
2023/02/16 07:23:31;;;;;;;120.22;51.83;;;;;;;7.03;100.00;102199.63;5029839;28;20033;-45
2023/02/16 07:25:56;;;;;;;118.90;50.95;;;;;;;7.06;100.00;102207.38;5029070;28;20030;-44
2023/02/16 07:28:22;;;;;;;130.93;51.58;;;;;;;7.11;100.00;102196.28;5029037;28;20057;-43
2023/02/16 07:30:47;;;;;;;123.35;50.03;;;;;;;7.14;100.00;102191.53;5024926;28;20029;-43
2023/02/16 07:33:13;;;;;;;114.65;49.65;;;;;;;7.18;100.00;102195.66;5022052;28;20144;-44
2023/02/16 07:35:39;;;;;;;126.65;50.72;;;;;;;7.20;100.00;102208.94;5030282;28;20049;-43
2023/02/16 07:38:04;;;;;;;135.50;52.00;;;;;;;7.18;100.00;102209.03;5030084;28;20469;-42
2023/02/16 07:40:30;;;;;;;118.47;50.55;;;;;;;7.19;100.00;102210.75;5028981;28;20473;-43
2023/02/16 07:43:00;;;;;;;124.13;49.50;;;;;;;7.17;100.00;102212.72;5021755;28;20083;-44
2023/02/16 07:45:26;;;;;;;120.80;50.95;;;;;;;7.17;100.00;102215.38;5030460;28;20021;-47
2023/02/16 07:47:51;;;;;;;121.82;51.88;;;;;;;7.15;100.00;102213.81;5028567;28;20167;-43
2023/02/16 07:50:16;;;;;;;120.63;50.42;;;;;;;7.18;100.00;102225.09;5030173;28;20440;-43
2023/02/16 07:52:42;;;;;;;123.25;51.80;;;;;;;7.20;100.00;102231.19;5019422;28;20026;-44
2023/02/16 07:55:07;;;;;;;129.95;51.10;;;;;;;7.18;100.00;102230.47;4992711;28;20018;-44
2023/02/16 07:57:33;;;;;;;127.65;51.42;;;;;;;7.19;100.00;102242.03;5010181;28;20096;-44
2023/02/16 07:59:58;;;;;;;128.57;53.67;;;;;;;7.24;100.00;102239.81;5023021;28;20030;-44
2023/02/16 08:02:26;;;;;;;129.25;53.42;;;;;;;7.19;100.00;102237.53;5029791;28;20057;-43
2023/02/16 08:04:52;;;;;;;137.45;56.65;;;;;;;7.15;100.00;102240.56;5020964;28;20076;-45
2023/02/16 08:07:18;;;;;;;136.05;54.70;;;;;;;7.13;100.00;102254.06;5010603;28;20022;-43
2023/02/16 08:09:43;;;;;;;131.45;54.50;;;;;;;7.06;100.00;102268.09;5030884;28;20087;-46
2023/02/16 08:12:10;;;;;;;135.45;57.30;;;;;;;6.98;100.00;102263.38;5031634;28;20030;-43
2023/02/16 08:14:36;;;;;;;141.73;58.13;;;;;;;6.96;100.00;102268.00;5033672;28;20030;-45
2023/02/16 08:17:02;;;;;;;142.05;58.22;;;;;;;6.90;100.00;102269.34;5024551;28;20044;-41
2023/02/16 08:19:28;;;;;;;143.75;60.50;;;;;;;6.84;100.00;102268.97;5028791;28;20024;-47
2023/02/16 08:21:53;;;;;;;150.77;60.28;;;;;;;6.84;100.00;102259.09;5045097;28;20483;-46
2023/02/16 08:24:20;;;;;;;134.23;60.35;;;;;;;6.86;100.00;102272.38;5033053;28;20033;-44
2023/02/16 08:26:48;;;;;;;151.38;60.40;;;;;;;6.83;100.00;102270.81;5032635;28;20484;-48
2023/02/16 08:29:16;;;;;;;138.95;58.83;;;;;;;6.87;100.00;102274.06;5033456;28;20029;-44
2023/02/16 08:31:42;;;;;;;;;;;;;;;6.84;100.00;102285.03;5034102;28;20033;-43
2023/02/16 08:34:09;;;;;;;146.00;59.30;;;;;;;6.80;100.00;102284.44;5032013;28;19924;-45
2023/02/16 08:36:37;;;;;;;140.55;59.92;;;;;;;6.83;100.00;102286.84;5032144;28;20530;-43
2023/02/16 08:39:06;;;;;;;142.60;60.10;;;;;;;6.88;100.00;102281.16;5033484;28;20555;-44
2023/02/16 08:41:33;;;;;;;144.48;59.08;;;;;;;6.92;100.00;102278.06;5032364;28;20396;-44
2023/02/16 08:43:59;;;;;;;145.07;60.03;;;;;;;6.94;100.00;102276.13;5033708;28;20465;-44
2023/02/16 08:46:27;;;;;;;140.02;59.13;;;;;;;6.93;100.00;102284.31;5030728;28;20419;-45
2023/02/16 08:48:55;;;;;;;;;;;;;;;6.95;100.00;102276.97;5031438;28;20117;-45
2023/02/16 08:51:22;;;;;;;137.73;58.58;;;;;;;7.06;100.00;102278.78;5032447;28;19905;-43
2023/02/16 08:53:48;;;;;;;140.77;58.78;;;;;;;7.13;100.00;102275.50;5030915;28;20326;-46
2023/02/16 08:56:15;;;;;;;140.98;60.17;;;;;;;7.05;100.00;102272.59;5029588;28;20491;-43
2023/02/16 08:58:41;;;;;;;139.77;60.37;;;;;;;7.13;100.00;102280.84;5027184;28;20032;-44
2023/02/16 09:01:07;;;;;;;136.38;58.83;;;;;;;7.18;100.00;102277.81;5032919;28;20034;-43
2023/02/16 09:03:33;;;;;;;135.20;59.08;;;;;;;7.22;100.00;102271.25;5029020;28;20311;-42
2023/02/16 09:06:01;;;;;;;139.85;62.03;;;;;;;7.23;100.00;102271.09;5020793;28;20084;-44
2023/02/16 09:08:27;;;;;;;134.07;60.08;;;;;;;7.29;100.00;102275.09;5033361;28;20033;-44
2023/02/16 09:10:52;;;;;;;138.55;58.22;;;;;;;7.33;100.00;102275.72;5035207;28;20035;-44
2023/02/16 09:13:18;;;;;;;139.77;59.00;;;;;;;7.24;100.00;102269.28;5035652;28;20037;-44
2023/02/16 09:15:43;;;;;;;137.77;60.15;;;;;;;7.26;100.00;102276.19;5017527;28;20044;-43
2023/02/16 09:18:12;;;;;;;133.80;60.70;;;;;;;7.20;100.00;102274.03;5035271;28;20025;-44
2023/02/16 09:20:42;;;;;;;134.23;58.15;;;;;;;7.26;100.00;102265.50;5033121;28;20028;-43
2023/02/16 09:23:09;;;;;;;134.43;60.28;;;;;;;7.26;100.00;102270.84;5028323;28;20155;-43
2023/02/16 09:25:36;;;;;;;140.63;59.95;;;;;;;7.34;100.00;102272.91;5033052;28;20021;-44
2023/02/16 09:28:01;;;;;;;134.27;60.25;;;;;;;7.56;100.00;102272.00;5032765;28;20057;-44
2023/02/16 09:30:27;;;;;;;142.82;61.85;;;;;;;7.68;100.00;102276.31;5030944;28;20068;-45
2023/02/16 09:32:52;;;;;;;132.55;59.40;;;;;;;7.80;100.00;102263.75;5032678;28;20474;-44
2023/02/16 09:35:20;;;;;;;138.38;58.58;;;;;;;7.98;100.00;102261.34;5032778;28;20381;-44
2023/02/16 09:37:45;;;;;;;124.88;55.95;;;;;;;8.20;100.00;102259.50;5031744;28;20048;-42
2023/02/16 09:40:12;;;;;;;115.15;55.00;;;;;;;8.39;100.00;102248.91;5031059;28;20041;-42
2023/02/16 09:43:09;;;;;;;113.37;54.13;;;;;;;8.56;100.00;102239.41;5029954;28;20115;-42
2023/02/16 09:45:41;;;;;;;117.70;53.45;;;;;;;8.46;100.00;102230.47;5019286;28;20644;-44
2023/02/16 09:48:22;;;;;;;123.28;54.58;;;;;;;8.41;100.00;102228.16;5011106;28;20303;-42
2023/02/16 09:50:49;;;;;;;116.80;53.72;;;;;;;8.46;100.00;102231.31;5017578;28;20033;-44
2023/02/16 09:53:22;;;;;;;131.70;55.73;;;;;;;8.59;100.00;102232.91;5031133;28;20033;-44
2023/02/16 09:55:58;;;;;;;118.72;53.72;;;;;;;8.41;100.00;102235.38;5031094;28;20284;-45
2023/02/16 09:58:38;;;;;;;117.57;53.17;;;;;;;8.25;100.00;102241.19;5032007;28;20037;-44
2023/02/16 10:01:16;;;;;;;122.13;54.38;;;;;;;8.22;100.00;102238.78;5027974;28;20110;-45
2023/02/16 10:04:04;;;;;;;127.25;54.97;;;;;;;8.24;100.00;102229.63;5029459;28;20029;-43
2023/02/16 10:06:35;;;;;;;;;;;;;;;8.35;100.00;102232.22;5030281;28;20080;-43
2023/02/16 10:09:08;;;;;;;124.40;54.20;;;;;;;8.20;100.00;102224.63;5030604;28;19909;-44
2023/02/16 10:11:45;;;;;;;124.45;54.53;;;;;;;8.22;100.00;102230.72;5029711;28;20033;-43
2023/02/16 10:14:36;;;;;;;130.25;57.30;;;;;;;8.27;100.00;102229.34;5027228;28;20045;-45
2023/02/16 10:17:39;;;;;;;132.90;57.00;;;;;;;8.26;100.00;102237.50;5011661;28;20116;-43
2023/02/16 10:20:12;;;;;;;133.85;55.00;;;;;;;8.30;100.00;102229.06;5002835;28;20041;-44
2023/02/16 10:22:48;;;;;;;136.70;57.88;;;;;;;8.23;100.00;102233.25;5029861;28;20048;-43
2023/02/16 10:25:19;;;;;;;129.23;55.70;;;;;;;8.22;100.00;102222.69;5031749;28;20136;-44
2023/02/16 10:27:51;;;;;;;129.13;56.30;;;;;;;8.29;100.00;102221.16;5031405;28;20028;-42
2023/02/16 10:30:19;;;;;;;131.27;57.42;;;;;;;8.33;100.00;102227.97;5029905;28;20033;-45
2023/02/16 10:32:56;;;;;;;119.05;55.42;;;;;;;8.38;100.00;102240.97;5029459;28;20507;-45
2023/02/16 10:35:31;;;;;;;123.95;56.08;;;;;;;8.35;100.00;102239.41;5029863;28;20022;-44
2023/02/16 10:38:09;;;;;;;127.18;55.53;;;;;;;8.55;100.00;102240.38;5009574;28;20175;-43
2023/02/16 10:40:54;;;;;;;120.05;54.42;;;;;;;8.71;100.00;102245.25;5012000;28;20029;-44
2023/02/16 10:43:46;;;;;;;123.53;55.03;;;;;;;8.80;100.00;102247.13;5028828;28;20040;-44
2023/02/16 10:46:25;;;;;;;136.38;56.03;;;;;;;8.73;100.00;102254.00;5030023;28;20509;-44
2023/02/16 10:48:52;;;;;;;145.55;63.00;;;;;;;8.84;100.00;102248.53;5019938;28;20029;-43
2023/02/16 10:51:18;;;;;;;160.95;69.55;;;;;;;8.77;100.00;102250.09;5030912;28;20112;-44
2023/02/16 10:53:46;;;;;;;148.23;63.42;;;;;;;8.78;100.00;102243.72;5029672;28;20466;-44
2023/02/16 10:56:22;;;;;;;135.13;61.40;;;;;;;9.01;100.00;102236.31;5011896;28;20109;-44
2023/02/16 10:58:48;;;;;;;136.85;60.55;;;;;;;9.12;100.00;102235.34;5015560;28;20037;-44
2023/02/16 11:01:31;;;;;;;119.65;55.15;;;;;;;9.07;100.00;102232.22;5024002;28;20350;-43
2023/02/16 11:03:57;;;;;;;118.97;53.30;;;;;;;9.35;100.00;102226.03;5027915;28;20038;-43
2023/02/16 11:06:24;;;;;;;123.05;55.03;;;;;;;9.36;100.00;102210.78;5031309;28;20099;-44
2023/02/16 11:08:58;;;;;;;119.35;53.63;;;;;;;9.39;100.00;102218.53;5028787;28;20065;-44
2023/02/16 11:11:34;;;;;;;118.80;52.80;;;;;;;9.47;100.00;102212.47;5010925;28;20424;-43
2023/02/16 11:14:03;;;;;;;116.57;53.38;;;;;;;9.45;100.00;102210.78;5030442;28;20419;-44
2023/02/16 11:16:28;;;;;;;103.53;46.70;;;;;;;9.38;100.00;102201.56;5021298;28;20022;-43
2023/02/16 11:18:59;;;;;;;98.32;47.75;;;;;;;9.54;100.00;102202.84;5029124;28;20026;-45
2023/02/16 11:21:54;;;;;;;106.63;47.80;;;;;;;9.50;100.00;102196.06;5029485;28;20362;-44
2023/02/16 11:24:28;;;;;;;100.53;43.17;;;;;;;9.58;100.00;102196.19;4991871;28;20136;-47
2023/02/16 11:27:04;;;;;;;96.10;42.35;;;;;;;9.63;100.00;102200.16;5030568;28;20067;-43
2023/02/16 11:29:30;;;;;;;92.47;42.67;;;;;;;9.78;100.00;102197.03;5030283;28;20362;-45
2023/02/16 11:31:56;;;;;;;98.35;44.92;;;;;;;9.70;100.00;102184.31;5015758;28;20030;-44
2023/02/16 11:34:30;;;;;;;93.28;43.28;;;;;;;9.67;100.00;102193.50;5027888;28;20044;-44
2023/02/16 11:37:23;;;;;;;103.10;45.03;;;;;;;9.81;100.00;102180.63;5030143;28;20051;-45
2023/02/16 11:39:57;;;;;;;92.55;43.10;;;;;;;10.13;100.00;102182.09;5015577;28;20044;-44
2023/02/16 11:42:28;;;;;;;97.22;44.42;;;;;;;10.28;100.00;102176.13;5030346;28;20091;-44
2023/02/16 11:44:55;;;;;;;106.53;44.95;;;;;;;10.33;100.00;102168.47;5020520;28;20018;-44
2023/02/16 11:47:21;;;;;;;99.15;44.95;;;;;;;10.45;100.00;102165.56;5008974;28;20105;-46
2023/02/16 11:49:47;;;;;;;105.72;46.28;;;;;;;10.55;100.00;102161.84;5023134;28;20113;-46